sensor_id;sensor_type;location;lat;lon;timestamp;pressure;altitude;pressure_sealevel;temperature;humidity
68226;BME280;55045;49.410;11.030;2022-08-05T00:01:11;97579.22;;;24.39;59.53
68226;BME280;55045;49.410;11.030;2022-08-05T00:04:31;97591.38;;;24.26;60.26
68226;BME280;55045;49.410;11.030;2022-08-05T00:07:54;97580.00;;;24.09;61.34
68226;BME280;55045;49.410;11.030;2022-08-05T00:11:04;97580.22;;;23.99;63.39
68226;BME280;55045;49.410;11.030;2022-08-05T00:14:31;97579.59;;;23.89;64.26
68226;BME280;55045;49.410;11.030;2022-08-05T00:17:54;97579.22;;;24.00;63.11
68226;BME280;55045;49.410;11.030;2022-08-05T00:21:16;97578.25;;;24.01;63.59
68226;BME280;55045;49.410;11.030;2022-08-05T00:24:21;97570.44;;;24.00;63.63
68226;BME280;55045;49.410;11.030;2022-08-05T00:27:50;97568.03;;;23.82;65.37
68226;BME280;55045;49.410;11.030;2022-08-05T00:30:57;97566.16;;;23.99;63.69
68226;BME280;55045;49.410;11.030;2022-08-05T00:34:05;97572.53;;;23.73;65.16
68226;BME280;55045;49.410;11.030;2022-08-05T00:37:29;97570.97;;;23.95;64.13
68226;BME280;55045;49.410;11.030;2022-08-05T00:41:11;97570.56;;;23.67;65.85
68226;BME280;55045;49.410;11.030;2022-08-05T00:44:15;97572.53;;;23.65;66.75
68226;BME280;55045;49.410;11.030;2022-08-05T00:47:23;97569.56;;;23.60;66.78
68226;BME280;55045;49.410;11.030;2022-08-05T00:50:26;97563.94;;;23.47;68.07
68226;BME280;55045;49.410;11.030;2022-08-05T00:53:29;97562.94;;;23.48;67.41
68226;BME280;55045;49.410;11.030;2022-08-05T00:56:53;97560.81;;;23.43;68.83
68226;BME280;55045;49.410;11.030;2022-08-05T00:59:56;97555.06;;;23.32;69.29
68226;BME280;55045;49.410;11.030;2022-08-05T01:03:01;97563.63;;;23.42;69.26
68226;BME280;55045;49.410;11.030;2022-08-05T01:06:09;97558.00;;;23.37;70.36
68226;BME280;55045;49.410;11.030;2022-08-05T01:09:16;97561.00;;;23.34;70.52
68226;BME280;55045;49.410;11.030;2022-08-05T01:12:22;97550.41;;;23.25;71.03
68226;BME280;55045;49.410;11.030;2022-08-05T01:15:33;97547.59;;;23.19;72.52
68226;BME280;55045;49.410;11.030;2022-08-05T01:18:51;97551.41;;;23.24;71.56
68226;BME280;55045;49.410;11.030;2022-08-05T01:22:04;97543.81;;;23.21;72.72
68226;BME280;55045;49.410;11.030;2022-08-05T01:25:36;97548.47;;;23.11;73.70
68226;BME280;55045;49.410;11.030;2022-08-05T01:28:57;97546.94;;;23.09;74.23
68226;BME280;55045;49.410;11.030;2022-08-05T01:32:09;97542.66;;;23.24;73.30
68226;BME280;55045;49.410;11.030;2022-08-05T01:35:25;97545.47;;;23.14;74.94
68226;BME280;55045;49.410;11.030;2022-08-05T01:38:49;97543.66;;;23.15;75.22
68226;BME280;55045;49.410;11.030;2022-08-05T01:41:53;97536.38;;;23.09;75.77
68226;BME280;55045;49.410;11.030;2022-08-05T01:45:00;97533.94;;;22.99;76.76
68226;BME280;55045;49.410;11.030;2022-08-05T01:48:05;97537.22;;;22.85;78.42
68226;BME280;55045;49.410;11.030;2022-08-05T01:51:11;97541.47;;;22.78;79.21
68226;BME280;55045;49.410;11.030;2022-08-05T01:54:18;97540.81;;;22.76;80.46
68226;BME280;55045;49.410;11.030;2022-08-05T01:57:30;97538.50;;;22.73;79.93
68226;BME280;55045;49.410;11.030;2022-08-05T02:00:57;97542.97;;;22.72;80.82
68226;BME280;55045;49.410;11.030;2022-08-05T02:04:03;97538.16;;;22.76;80.72
68226;BME280;55045;49.410;11.030;2022-08-05T02:07:07;97544.28;;;22.68;81.56
68226;BME280;55045;49.410;11.030;2022-08-05T02:10:10;97553.53;;;22.64;81.36
68226;BME280;55045;49.410;11.030;2022-08-05T02:13:24;97531.38;;;22.65;82.12
68226;BME280;55045;49.410;11.030;2022-08-05T02:16:52;97542.81;;;22.74;81.54
68226;BME280;55045;49.410;11.030;2022-08-05T02:20:00;97555.53;;;22.70;81.53
68226;BME280;55045;49.410;11.030;2022-08-05T02:23:09;97559.81;;;22.63;82.30
68226;BME280;55045;49.410;11.030;2022-08-05T02:26:19;97547.22;;;22.40;84.14
68226;BME280;55045;49.410;11.030;2022-08-05T02:29:28;97555.78;;;22.34;85.37
68226;BME280;55045;49.410;11.030;2022-08-05T02:32:56;97555.63;;;22.36;85.88
68226;BME280;55045;49.410;11.030;2022-08-05T02:36:02;97551.00;;;22.30;86.69
68226;BME280;55045;49.410;11.030;2022-08-05T02:39:11;97548.28;;;22.13;86.81
68226;BME280;55045;49.410;11.030;2022-08-05T02:42:22;97550.78;;;22.15;88.31
68226;BME280;55045;49.410;11.030;2022-08-05T02:45:29;97558.53;;;22.17;88.51
68226;BME280;55045;49.410;11.030;2022-08-05T02:48:56;97556.88;;;22.16;88.66
68226;BME280;55045;49.410;11.030;2022-08-05T02:52:00;97537.72;;;22.13;88.88
68226;BME280;55045;49.410;11.030;2022-08-05T02:55:08;97558.47;;;22.00;89.27
68226;BME280;55045;49.410;11.030;2022-08-05T02:58:14;97553.31;;;21.91;90.43
68226;BME280;55045;49.410;11.030;2022-08-05T03:01:23;97540.53;;;21.78;91.56
68226;BME280;55045;49.410;11.030;2022-08-05T03:04:29;97537.38;;;21.74;91.71
68226;BME280;55045;49.410;11.030;2022-08-05T03:07:35;97546.53;;;21.96;91.95
68226;BME280;55045;49.410;11.030;2022-08-05T03:10:58;97532.53;;;22.04;92.43
68226;BME280;55045;49.410;11.030;2022-08-05T03:14:22;97532.16;;;22.33;90.34
68226;BME280;55045;49.410;11.030;2022-08-05T03:17:27;97529.25;;;22.52;88.59
68226;BME280;55045;49.410;11.030;2022-08-05T03:20:32;97604.56;;;22.48;89.24
68226;BME280;55045;49.410;11.030;2022-08-05T03:23:37;97624.69;;;22.57;86.12
68226;BME280;55045;49.410;11.030;2022-08-05T03:26:41;97623.50;;;23.18;82.55
68226;BME280;55045;49.410;11.030;2022-08-05T03:29:50;97611.94;;;23.52;77.13
68226;BME280;55045;49.410;11.030;2022-08-05T03:34:39;97598.53;;;23.53;76.63
68226;BME280;55045;49.410;11.030;2022-08-05T03:37:43;97599.69;;;23.43;77.70
68226;BME280;55045;49.410;11.030;2022-08-05T03:40:47;97591.75;;;23.18;79.01
68226;BME280;55045;49.410;11.030;2022-08-05T03:43:52;97605.28;;;22.83;81.44
68226;BME280;55045;49.410;11.030;2022-08-05T03:47:12;97600.63;;;22.77;81.39
68226;BME280;55045;49.410;11.030;2022-08-05T03:50:18;97595.84;;;22.72;81.05
68226;BME280;55045;49.410;11.030;2022-08-05T03:53:27;97589.56;;;22.73;82.41
68226;BME280;55045;49.410;11.030;2022-08-05T03:56:53;97594.69;;;22.75;81.66
68226;BME280;55045;49.410;11.030;2022-08-05T04:00:04;97601.59;;;22.59;81.04
68226;BME280;55045;49.410;11.030;2022-08-05T04:03:16;97606.88;;;22.59;81.87
68226;BME280;55045;49.410;11.030;2022-08-05T04:06:32;97603.09;;;22.78;80.19
68226;BME280;55045;49.410;11.030;2022-08-05T04:09:36;97588.78;;;22.89;80.54
68226;BME280;55045;49.410;11.030;2022-08-05T04:12:54;97606.59;;;22.79;80.55
68226;BME280;55045;49.410;11.030;2022-08-05T04:15:59;97610.06;;;22.79;80.58
68226;BME280;55045;49.410;11.030;2022-08-05T04:19:05;97605.28;;;22.83;79.08
68226;BME280;55045;49.410;11.030;2022-08-05T04:22:15;97600.47;;;22.70;79.64
68226;BME280;55045;49.410;11.030;2022-08-05T04:25:22;97596.97;;;22.61;80.21
68226;BME280;55045;49.410;11.030;2022-08-05T04:28:46;97605.97;;;22.85;79.56
68226;BME280;55045;49.410;11.030;2022-08-05T04:31:53;97601.16;;;22.80;80.42
68226;BME280;55045;49.410;11.030;2022-08-05T04:34:57;97615.41;;;23.04;79.48
68226;BME280;55045;49.410;11.030;2022-08-05T04:38:02;97607.78;;;23.09;77.31
68226;BME280;55045;49.410;11.030;2022-08-05T04:41:08;97608.31;;;23.20;76.22
68226;BME280;55045;49.410;11.030;2022-08-05T04:44:11;97610.78;;;23.30;74.92
68226;BME280;55045;49.410;11.030;2022-08-05T04:47:15;97613.56;;;23.28;74.84
68226;BME280;55045;49.410;11.030;2022-08-05T04:50:21;97608.63;;;23.42;74.84
68226;BME280;55045;49.410;11.030;2022-08-05T04:53:46;97611.25;;;23.50;73.99
68226;BME280;55045;49.410;11.030;2022-08-05T04:56:50;97617.88;;;23.38;71.97
68226;BME280;55045;49.410;11.030;2022-08-05T04:59:59;97620.22;;;23.33;73.37
68226;BME280;55045;49.410;11.030;2022-08-05T05:03:04;97620.53;;;23.46;74.34
68226;BME280;55045;49.410;11.030;2022-08-05T05:06:08;97626.47;;;23.48;74.12
68226;BME280;55045;49.410;11.030;2022-08-05T05:09:33;97635.25;;;23.40;73.63
68226;BME280;55045;49.410;11.030;2022-08-05T05:12:39;97640.03;;;23.45;73.29
68226;BME280;55045;49.410;11.030;2022-08-05T05:15:43;97644.34;;;23.54;72.13
68226;BME280;55045;49.410;11.030;2022-08-05T05:19:00;97649.63;;;23.70;71.48
68226;BME280;55045;49.410;11.030;2022-08-05T05:22:20;97667.19;;;23.63;71.20
68226;BME280;55045;49.410;11.030;2022-08-05T05:25:29;97677.09;;;23.69;71.63
68226;BME280;55045;49.410;11.030;2022-08-05T05:28:41;97671.97;;;23.51;73.25
68226;BME280;55045;49.410;11.030;2022-08-05T05:31:46;97694.81;;;23.69;72.37
68226;BME280;55045;49.410;11.030;2022-08-05T05:34:52;97694.63;;;23.78;70.96
68226;BME280;55045;49.410;11.030;2022-08-05T05:37:57;97695.28;;;23.89;70.32
68226;BME280;55045;49.410;11.030;2022-08-05T05:41:04;97692.63;;;23.97;70.22
68226;BME280;55045;49.410;11.030;2022-08-05T05:44:08;97700.22;;;24.00;70.55
68226;BME280;55045;49.410;11.030;2022-08-05T05:47:33;97688.59;;;24.17;69.69
68226;BME280;55045;49.410;11.030;2022-08-05T05:51:18;97676.66;;;24.37;66.78
68226;BME280;55045;49.410;11.030;2022-08-05T05:54:21;97676.63;;;24.46;66.09
68226;BME280;55045;49.410;11.030;2022-08-05T05:57:46;97693.19;;;24.79;65.50
68226;BME280;55045;49.410;11.030;2022-08-05T06:00:53;97693.16;;;25.18;64.28
68226;BME280;55045;49.410;11.030;2022-08-05T06:03:57;97695.34;;;25.37;61.26
68226;BME280;55045;49.410;11.030;2022-08-05T06:07:04;97706.38;;;25.72;58.37
68226;BME280;55045;49.410;11.030;2022-08-05T06:10:11;97715.81;;;26.56;54.91
68226;BME280;55045;49.410;11.030;2022-08-05T06:13:18;97731.13;;;27.35;50.37
68226;BME280;55045;49.410;11.030;2022-08-05T06:16:24;97747.13;;;26.69;52.69
68226;BME280;55045;49.410;11.030;2022-08-05T06:19:33;97799.09;;;26.42;55.86
68226;BME280;55045;49.410;11.030;2022-08-05T06:22:36;97778.94;;;26.10;59.48
68226;BME280;55045;49.410;11.030;2022-08-05T06:25:43;97795.38;;;25.68;62.90
68226;BME280;55045;49.410;11.030;2022-08-05T06:29:08;97783.59;;;25.62;65.68
68226;BME280;55045;49.410;11.030;2022-08-05T06:32:32;97781.69;;;25.56;66.40
68226;BME280;55045;49.410;11.030;2022-08-05T06:35:36;97752.16;;;25.28;67.23
68226;BME280;55045;49.410;11.030;2022-08-05T06:38:59;97787.53;;;25.20;69.61
68226;BME280;55045;49.410;11.030;2022-08-05T06:42:04;97804.47;;;25.11;70.52
68226;BME280;55045;49.410;11.030;2022-08-05T06:45:09;97817.97;;;24.93;72.24
68226;BME280;55045;49.410;11.030;2022-08-05T06:48:22;97827.09;;;24.83;74.56
68226;BME280;55045;49.410;11.030;2022-08-05T06:51:46;97831.66;;;24.66;75.71
68226;BME280;55045;49.410;11.030;2022-08-05T06:54:49;97840.91;;;24.78;76.23
68226;BME280;55045;49.410;11.030;2022-08-05T06:57:54;97847.66;;;24.89;76.32
68226;BME280;55045;49.410;11.030;2022-08-05T07:01:19;97856.06;;;26.02;69.09
68226;BME280;55045;49.410;11.030;2022-08-05T07:04:23;97882.06;;;26.14;67.65
68226;BME280;55045;49.410;11.030;2022-08-05T07:07:27;97864.91;;;26.78;64.33
68226;BME280;55045;49.410;11.030;2022-08-05T07:10:44;97875.78;;;26.30;69.37
68226;BME280;55045;49.410;11.030;2022-08-05T07:13:54;97883.09;;;27.33;63.05
68226;BME280;55045;49.410;11.030;2022-08-05T07:17:23;97880.88;;;27.88;60.52
68226;BME280;55045;49.410;11.030;2022-08-05T07:20:46;97878.91;;;27.96;58.26
68226;BME280;55045;49.410;11.030;2022-08-05T07:23:50;97881.16;;;27.78;59.11
68226;BME280;55045;49.410;11.030;2022-08-05T07:26:54;97893.06;;;28.39;55.44
68226;BME280;55045;49.410;11.030;2022-08-05T07:29:58;97884.94;;;28.76;54.28
68226;BME280;55045;49.410;11.030;2022-08-05T07:33:22;97889.63;;;29.36;51.67
68226;BME280;55045;49.410;11.030;2022-08-05T07:36:38;97884.72;;;29.33;49.81
68226;BME280;55045;49.410;11.030;2022-08-05T07:39:42;97882.97;;;28.13;55.80
68226;BME280;55045;49.410;11.030;2022-08-05T07:43:05;97879.94;;;28.38;53.64
68226;BME280;55045;49.410;11.030;2022-08-05T07:46:22;97880.91;;;27.58;58.49
68226;BME280;55045;49.410;11.030;2022-08-05T07:49:29;97891.88;;;28.70;53.97
68226;BME280;55045;49.410;11.030;2022-08-05T07:52:52;97884.88;;;28.69;53.83
68226;BME280;55045;49.410;11.030;2022-08-05T07:55:55;97885.59;;;29.06;50.18
68226;BME280;55045;49.410;11.030;2022-08-05T07:59:19;97891.13;;;29.11;49.96
68226;BME280;55045;49.410;11.030;2022-08-05T08:02:41;97889.56;;;28.88;50.69
68226;BME280;55045;49.410;11.030;2022-08-05T08:06:06;97887.59;;;29.38;48.60
68226;BME280;55045;49.410;11.030;2022-08-05T08:09:12;97885.25;;;29.22;50.62
68226;BME280;55045;49.410;11.030;2022-08-05T08:12:16;97892.28;;;28.95;51.24
68226;BME280;55045;49.410;11.030;2022-08-05T08:15:40;97899.50;;;29.90;46.58
68226;BME280;55045;49.410;11.030;2022-08-05T08:19:03;97871.78;;;29.98;46.11
68226;BME280;55045;49.410;11.030;2022-08-05T08:22:09;97897.25;;;29.33;48.86
68226;BME280;55045;49.410;11.030;2022-08-05T08:25:17;97894.16;;;29.36;48.70
68226;BME280;55045;49.410;11.030;2022-08-05T08:28:41;97904.53;;;29.17;49.26
68226;BME280;55045;49.410;11.030;2022-08-05T08:32:00;97917.06;;;30.13;46.75
68226;BME280;55045;49.410;11.030;2022-08-05T08:35:06;97907.00;;;30.34;45.16
68226;BME280;55045;49.410;11.030;2022-08-05T08:38:16;97906.06;;;29.74;46.79
68226;BME280;55045;49.410;11.030;2022-08-05T08:41:37;97912.88;;;29.90;47.27
68226;BME280;55045;49.410;11.030;2022-08-05T08:45:02;97915.13;;;29.93;46.06
68226;BME280;55045;49.410;11.030;2022-08-05T08:48:27;97909.91;;;29.59;46.01
68226;BME280;55045;49.410;11.030;2022-08-05T08:51:57;97916.72;;;30.35;44.33
68226;BME280;55045;49.410;11.030;2022-08-05T08:55:08;97902.34;;;30.76;42.98
68226;BME280;55045;49.410;11.030;2022-08-05T08:58:14;97921.88;;;30.90;42.64
68226;BME280;55045;49.410;11.030;2022-08-05T09:01:18;97907.03;;;30.15;44.06
68226;BME280;55045;49.410;11.030;2022-08-05T09:04:22;97919.16;;;29.56;47.06
68226;BME280;55045;49.410;11.030;2022-08-05T09:07:34;97928.75;;;29.98;45.93
68226;BME280;55045;49.410;11.030;2022-08-05T09:10:42;97916.94;;;29.73;46.55
68226;BME280;55045;49.410;11.030;2022-08-05T09:13:48;97900.25;;;29.58;46.89
68226;BME280;55045;49.410;11.030;2022-08-05T09:17:12;97910.19;;;29.77;46.46
68226;BME280;55045;49.410;11.030;2022-08-05T09:20:35;97908.53;;;29.00;48.99
68226;BME280;55045;49.410;11.030;2022-08-05T09:23:39;97902.22;;;29.97;46.16
68226;BME280;55045;49.410;11.030;2022-08-05T09:26:51;97897.16;;;30.88;42.99
68226;BME280;55045;49.410;11.030;2022-08-05T09:30:00;97904.97;;;30.43;42.39
68226;BME280;55045;49.410;11.030;2022-08-05T09:34:53;97911.97;;;30.51;42.17
68226;BME280;55045;49.410;11.030;2022-08-05T09:37:56;97908.47;;;30.90;39.00
68226;BME280;55045;49.410;11.030;2022-08-05T09:41:19;97904.34;;;31.01;39.02
68226;BME280;55045;49.410;11.030;2022-08-05T09:44:34;97879.06;;;30.77;37.52
68226;BME280;55045;49.410;11.030;2022-08-05T09:47:39;97902.44;;;31.14;35.96
68226;BME280;55045;49.410;11.030;2022-08-05T09:51:00;97894.59;;;31.39;35.10
68226;BME280;55045;49.410;11.030;2022-08-05T09:54:05;97888.03;;;31.22;35.64
68226;BME280;55045;49.410;11.030;2022-08-05T09:57:27;97883.16;;;30.73;36.47
68226;BME280;55045;49.410;11.030;2022-08-05T10:00:36;97889.69;;;31.10;35.83
68226;BME280;55045;49.410;11.030;2022-08-05T10:03:54;97879.66;;;31.57;33.93
68226;BME280;55045;49.410;11.030;2022-08-05T10:07:02;97885.75;;;31.32;33.13
68226;BME280;55045;49.410;11.030;2022-08-05T10:10:30;97873.28;;;31.58;32.80
68226;BME280;55045;49.410;11.030;2022-08-05T10:13:36;97876.78;;;31.96;32.80
68226;BME280;55045;49.410;11.030;2022-08-05T10:16:51;97869.94;;;31.62;32.39
68226;BME280;55045;49.410;11.030;2022-08-05T10:19:57;97850.50;;;31.73;32.37
68226;BME280;55045;49.410;11.030;2022-08-05T10:23:14;97871.63;;;31.95;31.07
68226;BME280;55045;49.410;11.030;2022-08-05T10:26:39;97862.13;;;31.99;31.77
68226;BME280;55045;49.410;11.030;2022-08-05T10:29:53;97863.63;;;32.70;30.70
68226;BME280;55045;49.410;11.030;2022-08-05T10:33:16;97866.59;;;32.12;31.58
68226;BME280;55045;49.410;11.030;2022-08-05T10:36:21;97869.47;;;32.42;31.69
68226;BME280;55045;49.410;11.030;2022-08-05T10:39:32;97828.47;;;32.28;31.22
68226;BME280;55045;49.410;11.030;2022-08-05T10:43:01;97851.69;;;32.16;31.03
68226;BME280;55045;49.410;11.030;2022-08-05T10:46:14;97847.00;;;32.11;31.13
68226;BME280;55045;49.410;11.030;2022-08-05T10:49:18;97850.31;;;32.81;30.52
68226;BME280;55045;49.410;11.030;2022-08-05T10:52:39;97848.59;;;32.44;31.23
68226;BME280;55045;49.410;11.030;2022-08-05T10:56:03;97850.28;;;32.63;31.46
68226;BME280;55045;49.410;11.030;2022-08-05T10:59:25;97838.34;;;32.84;30.30
68226;BME280;55045;49.410;11.030;2022-08-05T11:03:08;97839.75;;;32.12;30.84
68226;BME280;55045;49.410;11.030;2022-08-05T11:06:27;97840.69;;;32.74;29.86
68226;BME280;55045;49.410;11.030;2022-08-05T11:09:38;97828.31;;;32.73;29.45
68226;BME280;55045;49.410;11.030;2022-08-05T11:12:49;97830.88;;;32.43;29.62
68226;BME280;55045;49.410;11.030;2022-08-05T11:16:20;97825.50;;;32.86;29.85
68226;BME280;55045;49.410;11.030;2022-08-05T11:19:43;97821.31;;;32.90;29.58
68226;BME280;55045;49.410;11.030;2022-08-05T11:23:26;97836.53;;;32.96;29.27
68226;BME280;55045;49.410;11.030;2022-08-05T11:34:38;97806.03;;;32.90;29.28
68226;BME280;55045;49.410;11.030;2022-08-05T11:38:02;97839.00;;;33.34;28.74
68226;BME280;55045;49.410;11.030;2022-08-05T11:41:26;97840.03;;;33.33;29.24
68226;BME280;55045;49.410;11.030;2022-08-05T11:44:50;97842.06;;;33.38;28.79
68226;BME280;55045;49.410;11.030;2022-08-05T11:48:08;97841.06;;;32.77;29.24
68226;BME280;55045;49.410;11.030;2022-08-05T11:51:21;97839.19;;;32.78;29.22
68226;BME280;55045;49.410;11.030;2022-08-05T11:54:50;97830.19;;;32.47;30.91
68226;BME280;55045;49.410;11.030;2022-08-05T11:57:59;97842.13;;;33.49;29.00
68226;BME280;55045;49.410;11.030;2022-08-05T12:01:18;97828.50;;;32.53;30.06
68226;BME280;55045;49.410;11.030;2022-08-05T12:04:38;97838.34;;;32.59;29.82
68226;BME280;55045;49.410;11.030;2022-08-05T12:07:45;97827.75;;;33.07;28.71
68226;BME280;55045;49.410;11.030;2022-08-05T12:11:10;97820.59;;;33.01;28.50
68226;BME280;55045;49.410;11.030;2022-08-05T12:14:22;97832.56;;;32.80;29.00
68226;BME280;55045;49.410;11.030;2022-08-05T12:17:37;97835.00;;;32.38;29.55
68226;BME280;55045;49.410;11.030;2022-08-05T12:21:10;97822.53;;;32.69;29.69
68226;BME280;55045;49.410;11.030;2022-08-05T12:24:19;97831.00;;;33.46;28.65
68226;BME280;55045;49.410;11.030;2022-08-05T12:27:26;97814.59;;;33.36;28.44
68226;BME280;55045;49.410;11.030;2022-08-05T12:30:37;97816.28;;;34.08;27.74
68226;BME280;55045;49.410;11.030;2022-08-05T12:33:47;97818.09;;;33.55;27.73
68226;BME280;55045;49.410;11.030;2022-08-05T12:36:52;97828.09;;;33.29;28.02
68226;BME280;55045;49.410;11.030;2022-08-05T12:39:57;97824.09;;;32.58;29.32
68226;BME280;55045;49.410;11.030;2022-08-05T12:43:05;97813.53;;;33.55;28.27
68226;BME280;55045;49.410;11.030;2022-08-05T12:46:19;97811.19;;;32.92;28.91
68226;BME280;55045;49.410;11.030;2022-08-05T12:49:41;97811.84;;;33.24;28.70
68226;BME280;55045;49.410;11.030;2022-08-05T12:53:05;97815.13;;;33.44;29.21
68226;BME280;55045;49.410;11.030;2022-08-05T12:56:21;97812.94;;;33.35;28.69
68226;BME280;55045;49.410;11.030;2022-08-05T12:59:44;97805.84;;;34.00;28.71
68226;BME280;55045;49.410;11.030;2022-08-05T13:03:08;97816.44;;;33.54;29.27
68226;BME280;55045;49.410;11.030;2022-08-05T13:06:16;97801.47;;;33.58;29.18
68226;BME280;55045;49.410;11.030;2022-08-05T13:09:21;97805.56;;;33.60;28.85
68226;BME280;55045;49.410;11.030;2022-08-05T13:12:31;97793.91;;;33.36;29.48
68226;BME280;55045;49.410;11.030;2022-08-05T13:15:48;97790.34;;;33.06;29.78
68226;BME280;55045;49.410;11.030;2022-08-05T13:18:54;97793.53;;;33.33;29.68
68226;BME280;55045;49.410;11.030;2022-08-05T13:21:59;97783.91;;;33.43;29.82
68226;BME280;55045;49.410;11.030;2022-08-05T13:25:05;97736.78;;;33.11;29.09
68226;BME280;55045;49.410;11.030;2022-08-05T13:28:22;97789.72;;;33.40;29.48
68226;BME280;55045;49.410;11.030;2022-08-05T13:31:25;97770.16;;;33.51;29.28
68226;BME280;55045;49.410;11.030;2022-08-05T13:34:50;97776.06;;;33.72;29.12
68226;BME280;55045;49.410;11.030;2022-08-05T13:37:54;97777.47;;;33.44;29.27
68226;BME280;55045;49.410;11.030;2022-08-05T13:41:06;97773.13;;;33.73;29.73
68226;BME280;55045;49.410;11.030;2022-08-05T13:44:10;97768.34;;;32.97;29.60
68226;BME280;55045;49.410;11.030;2022-08-05T13:47:15;97763.44;;;32.94;30.02
68226;BME280;55045;49.410;11.030;2022-08-05T13:50:38;97767.75;;;33.13;29.73
68226;BME280;55045;49.410;11.030;2022-08-05T13:53:45;97768.13;;;32.99;29.98
68226;BME280;55045;49.410;11.030;2022-08-05T13:56:49;97755.91;;;32.84;29.97
68226;BME280;55045;49.410;11.030;2022-08-05T13:59:54;97750.44;;;33.39;29.77
68226;BME280;55045;49.410;11.030;2022-08-05T14:03:10;97736.47;;;34.02;28.99
68226;BME280;55045;49.410;11.030;2022-08-05T14:06:13;97738.91;;;33.92;28.54
68226;BME280;55045;49.410;11.030;2022-08-05T14:09:28;97748.88;;;33.02;29.54
68226;BME280;55045;49.410;11.030;2022-08-05T14:12:31;97735.75;;;32.93;30.05
68226;BME280;55045;49.410;11.030;2022-08-05T14:15:36;97731.63;;;33.81;29.22
68226;BME280;55045;49.410;11.030;2022-08-05T14:19:00;97728.81;;;33.76;28.71
68226;BME280;55045;49.410;11.030;2022-08-05T14:22:05;97728.53;;;34.19;28.61
68226;BME280;55045;49.410;11.030;2022-08-05T14:25:13;97738.78;;;33.87;28.94
68226;BME280;55045;49.410;11.030;2022-08-05T14:28:22;97730.16;;;33.97;28.64
68226;BME280;55045;49.410;11.030;2022-08-05T14:31:29;97733.09;;;34.19;28.57
68226;BME280;55045;49.410;11.030;2022-08-05T14:34:53;97731.31;;;33.89;28.56
68226;BME280;55045;49.410;11.030;2022-08-05T14:37:58;97723.25;;;34.01;28.48
68226;BME280;55045;49.410;11.030;2022-08-05T14:41:03;97735.66;;;34.60;27.95
68226;BME280;55045;49.410;11.030;2022-08-05T14:44:09;97729.34;;;33.96;28.23
68226;BME280;55045;49.410;11.030;2022-08-05T14:47:24;97731.56;;;33.99;28.41
68226;BME280;55045;49.410;11.030;2022-08-05T14:50:47;97735.66;;;33.30;29.25
68226;BME280;55045;49.410;11.030;2022-08-05T14:53:51;97736.78;;;32.92;29.76
68226;BME280;55045;49.410;11.030;2022-08-05T14:57:14;97731.09;;;33.31;29.15
68226;BME280;55045;49.410;11.030;2022-08-05T15:00:18;97715.69;;;33.68;28.76
68226;BME280;55045;49.410;11.030;2022-08-05T15:03:30;97728.63;;;34.01;28.29
68226;BME280;55045;49.410;11.030;2022-08-05T15:06:40;97707.53;;;33.74;28.18
68226;BME280;55045;49.410;11.030;2022-08-05T15:09:50;97730.78;;;33.69;28.14
68226;BME280;55045;49.410;11.030;2022-08-05T15:12:55;97738.53;;;33.77;27.89
68226;BME280;55045;49.410;11.030;2022-08-05T15:16:05;97730.72;;;32.97;28.68
68226;BME280;55045;49.410;11.030;2022-08-05T15:19:15;97740.97;;;32.70;29.18
68226;BME280;55045;49.410;11.030;2022-08-05T15:22:25;97726.69;;;32.33;29.29
68226;BME280;55045;49.410;11.030;2022-08-05T15:25:29;97720.91;;;32.11;29.66
68226;BME280;55045;49.410;11.030;2022-08-05T15:28:53;97747.06;;;32.16;30.53
68226;BME280;55045;49.410;11.030;2022-08-05T15:34:38;97751.75;;;32.45;31.37
68226;BME280;55045;49.410;11.030;2022-08-05T15:37:42;97755.41;;;32.32;31.90
68226;BME280;55045;49.410;11.030;2022-08-05T15:41:06;97756.75;;;32.42;31.24
68226;BME280;55045;49.410;11.030;2022-08-05T15:44:25;97756.19;;;32.08;31.82
68226;BME280;55045;49.410;11.030;2022-08-05T15:47:32;97752.84;;;31.88;31.73
68226;BME280;55045;49.410;11.030;2022-08-05T15:50:38;97762.38;;;31.84;32.01
68226;BME280;55045;49.410;11.030;2022-08-05T15:53:44;97754.22;;;31.65;32.20
68226;BME280;55045;49.410;11.030;2022-08-05T15:56:52;97771.75;;;31.68;32.44
68226;BME280;55045;49.410;11.030;2022-08-05T15:59:56;97769.13;;;31.61;32.41
68226;BME280;55045;49.410;11.030;2022-08-05T16:03:05;97776.59;;;31.52;32.51
68226;BME280;55045;49.410;11.030;2022-08-05T16:06:11;97716.38;;;30.72;33.05
68226;BME280;55045;49.410;11.030;2022-08-05T16:09:14;97786.13;;;31.42;33.20
68226;BME280;55045;49.410;11.030;2022-08-05T16:12:23;97777.19;;;31.16;33.58
68226;BME280;55045;49.410;11.030;2022-08-05T16:15:27;97782.63;;;30.90;33.84
68226;BME280;55045;49.410;11.030;2022-08-05T16:18:35;97785.97;;;30.79;33.96
68226;BME280;55045;49.410;11.030;2022-08-05T16:21:55;97787.19;;;30.83;34.21
68226;BME280;55045;49.410;11.030;2022-08-05T16:25:02;97790.88;;;30.82;33.96
68226;BME280;55045;49.410;11.030;2022-08-05T16:28:11;97793.00;;;30.66;34.51
68226;BME280;55045;49.410;11.030;2022-08-05T16:31:16;97799.91;;;30.94;33.91
68226;BME280;55045;49.410;11.030;2022-08-05T16:34:22;97807.16;;;30.80;35.39
68226;BME280;55045;49.410;11.030;2022-08-05T16:37:29;97797.97;;;30.36;36.15
68226;BME280;55045;49.410;11.030;2022-08-05T16:40:59;97753.72;;;29.94;37.37
68226;BME280;55045;49.410;11.030;2022-08-05T16:44:23;97795.09;;;30.18;37.84
68226;BME280;55045;49.410;11.030;2022-08-05T16:47:28;97809.28;;;30.19;38.03
68226;BME280;55045;49.410;11.030;2022-08-05T16:50:49;97809.19;;;29.72;39.61
68226;BME280;55045;49.410;11.030;2022-08-05T16:53:55;97791.22;;;29.40;40.45
68226;BME280;55045;49.410;11.030;2022-08-05T16:57:09;97807.63;;;29.30;41.99
68226;BME280;55045;49.410;11.030;2022-08-05T17:00:23;97812.25;;;29.08;43.22